createdAt,value
2023-03-29T00:00:08.979Z,62.97
2023-03-29T00:02:39.806Z,63.10
2023-03-29T00:05:08.672Z,63.08
2023-03-29T00:07:37.932Z,63.00
2023-03-29T00:10:07.592Z,63.19
2023-03-29T00:12:35.564Z,63.07
2023-03-29T00:15:03.744Z,63.13
2023-03-29T00:17:31.926Z,63.08
2023-03-29T00:19:59.921Z,63.04
2023-03-29T00:22:27.885Z,62.95
2023-03-29T00:24:57.198Z,62.96
2023-03-29T00:27:25.377Z,63.09
2023-03-29T00:29:53.271Z,62.97
2023-03-29T00:32:21.354Z,62.96
2023-03-29T00:34:50.905Z,62.90
2023-03-29T00:37:18.926Z,62.97
2023-03-29T00:39:46.942Z,62.96
2023-03-29T00:42:17.650Z,62.85
2023-03-29T00:45:00.314Z,62.75
2023-03-29T00:47:30.134Z,62.98
2023-03-29T00:50:00.273Z,62.84
2023-03-29T00:52:30.244Z,62.81
2023-03-29T00:54:59.525Z,62.70
2023-03-29T00:57:29.167Z,62.66
2023-03-29T00:59:57.083Z,62.65
2023-03-29T01:02:26.163Z,62.79
2023-03-29T01:04:56.086Z,62.62
2023-03-29T01:07:25.530Z,62.96
2023-03-29T01:09:54.465Z,63.03
2023-03-29T01:12:24.858Z,63.28
2023-03-29T01:14:55.662Z,63.33
2023-03-29T01:17:25.469Z,63.25
2023-03-29T01:19:58.147Z,63.23
2023-03-29T01:22:31.124Z,63.32
2023-03-29T01:25:05.343Z,63.24
2023-03-29T01:27:43.717Z,63.27
2023-03-29T01:30:14.146Z,63.17
2023-03-29T01:32:46.442Z,63.17
2023-03-29T01:35:16.187Z,63.13
2023-03-29T01:37:48.095Z,63.03
2023-03-29T01:40:16.111Z,63.09
2023-03-29T01:42:46.777Z,62.92
2023-03-29T01:45:20.549Z,63.03
2023-03-29T01:47:50.441Z,62.74
2023-03-29T01:50:19.457Z,62.85
2023-03-29T01:52:50.723Z,62.78
2023-03-29T01:55:20.571Z,62.94
2023-03-29T01:57:49.883Z,62.79
2023-03-29T02:00:21.138Z,62.70
2023-03-29T02:02:49.184Z,62.84
2023-03-29T02:05:17.327Z,62.84
2023-03-29T02:07:46.046Z,62.86
2023-03-29T02:10:14.345Z,62.87
2023-03-29T02:12:42.913Z,62.83
2023-03-29T02:15:14.322Z,62.87
2023-03-29T02:17:44.088Z,62.92
2023-03-29T02:20:14.424Z,62.78
2023-03-29T02:22:48.887Z,62.93
2023-03-29T02:25:17.566Z,62.78
2023-03-29T02:27:45.812Z,62.74
2023-03-29T02:30:15.755Z,62.68
2023-03-29T02:32:50.216Z,62.86
2023-03-29T02:35:21.864Z,62.94
2023-03-29T02:37:51.419Z,62.85
2023-03-29T02:40:20.944Z,62.94
2023-03-29T02:42:49.168Z,62.99
2023-03-29T02:45:18.627Z,62.96
2023-03-29T02:47:47.646Z,63.11
2023-03-29T02:50:16.015Z,62.88
2023-03-29T02:52:47.143Z,62.77
2023-03-29T02:55:17.149Z,62.88
2023-03-29T02:57:45.560Z,62.89
2023-03-29T03:00:20.147Z,62.99
2023-03-29T03:02:50.863Z,63.08
2023-03-29T03:05:22.143Z,63.20
2023-03-29T03:07:50.133Z,63.32
2023-03-29T03:10:19.227Z,63.17
2023-03-29T03:12:48.606Z,63.18
2023-03-29T03:15:16.797Z,63.35
2023-03-29T03:17:46.585Z,63.36
2023-03-29T03:20:16.214Z,63.15
2023-03-29T03:22:45.694Z,63.17
2023-03-29T03:25:13.680Z,63.32
2023-03-29T03:27:42.365Z,63.34
2023-03-29T03:30:11.940Z,63.40
2023-03-29T03:33:09.075Z,63.17
2023-03-29T03:36:02.978Z,63.07
2023-03-29T03:38:31.633Z,62.79
2023-03-29T03:41:01.491Z,62.79
2023-03-29T03:43:33.658Z,62.76
2023-03-29T03:46:02.066Z,62.82
2023-03-29T03:48:31.667Z,62.81
2023-03-29T03:51:10.460Z,62.59
2023-03-29T03:53:38.480Z,62.69
2023-03-29T03:56:16.398Z,62.52
2023-03-29T03:59:03.001Z,62.42
2023-03-29T04:01:37.766Z,62.50
2023-03-29T04:04:14.776Z,62.61
2023-03-29T04:07:02.526Z,62.71
2023-03-29T04:09:41.269Z,62.57
2023-03-29T04:12:20.742Z,62.51
2023-03-29T04:14:48.693Z,62.49
2023-03-29T04:17:27.569Z,62.63
2023-03-29T04:19:58.787Z,62.50
2023-03-29T04:22:31.591Z,62.61
2023-03-29T04:24:59.792Z,62.57
2023-03-29T04:27:47.647Z,62.40
2023-03-29T04:30:38.348Z,62.51
2023-03-29T04:33:35.111Z,62.86
2023-03-29T04:36:03.050Z,62.41
2023-03-29T04:38:36.131Z,62.68
2023-03-29T04:41:04.988Z,62.43
2023-03-29T04:43:58.555Z,62.59
2023-03-29T04:46:27.806Z,62.63
2023-03-29T04:49:16.603Z,62.54
2023-03-29T04:51:48.811Z,62.42
2023-03-29T04:54:22.513Z,62.61
2023-03-29T04:57:03.274Z,62.61
2023-03-29T04:59:50.012Z,62.73
2023-03-29T05:02:38.725Z,62.72
2023-03-29T05:05:06.895Z,62.71
2023-03-29T05:07:35.607Z,62.71
2023-03-29T05:10:05.415Z,62.82
2023-03-29T05:12:33.806Z,62.81
2023-03-29T05:15:01.814Z,62.87
2023-03-29T05:17:31.755Z,62.89
2023-03-29T05:20:09.479Z,62.93
2023-03-29T05:22:38.312Z,63.04
2023-03-29T05:25:11.460Z,63.09
2023-03-29T05:27:42.624Z,62.97
2023-03-29T05:30:15.503Z,63.10
2023-03-29T05:32:55.566Z,63.25
2023-03-29T05:35:26.340Z,63.13
2023-03-29T05:37:56.379Z,63.16
2023-03-29T05:40:26.271Z,63.14
2023-03-29T05:43:27.024Z,63.28
2023-03-29T05:45:55.558Z,63.14
2023-03-29T05:48:24.221Z,63.28
2023-03-29T05:50:53.501Z,63.12
2023-03-29T05:53:22.406Z,63.27
2023-03-29T05:55:52.246Z,63.25
2023-03-29T05:58:26.786Z,63.42
2023-03-29T06:00:55.040Z,63.42
2023-03-29T06:03:47.754Z,63.50
2023-03-29T06:06:17.635Z,63.57
2023-03-29T06:08:46.149Z,63.55
2023-03-29T06:11:22.282Z,63.48
2023-03-29T06:14:08.588Z,63.50
2023-03-29T06:16:43.303Z,63.58
2023-03-29T06:19:14.920Z,63.69
2023-03-29T06:21:42.935Z,63.54
2023-03-29T06:24:15.659Z,63.75
2023-03-29T06:26:52.324Z,63.89
2023-03-29T06:29:22.163Z,63.89
2023-03-29T06:31:52.554Z,63.88
2023-03-29T06:34:41.015Z,63.89
2023-03-29T06:37:39.134Z,64.07
2023-03-29T06:40:16.786Z,64.20
2023-03-29T06:42:47.678Z,64.33
2023-03-29T06:45:35.390Z,64.31
2023-03-29T06:48:07.859Z,64.40
2023-03-29T06:50:36.672Z,64.59
2023-03-29T06:53:24.820Z,64.53
2023-03-29T06:55:59.680Z,64.46
2023-03-29T06:58:47.012Z,64.46
2023-03-29T07:01:47.562Z,64.70
2023-03-29T07:04:25.986Z,64.77
2023-03-29T07:07:19.741Z,64.82
2023-03-29T07:09:54.203Z,65.04
2023-03-29T07:12:44.659Z,65.21
2023-03-29T07:15:15.459Z,65.25
2023-03-29T07:18:21.947Z,65.35
2023-03-29T07:20:50.136Z,65.60
2023-03-29T07:23:18.277Z,65.71
2023-03-29T07:25:48.073Z,65.73
2023-03-29T07:28:16.014Z,65.70
2023-03-29T07:30:45.756Z,65.59
2023-03-29T07:33:17.327Z,65.84
2023-03-29T07:35:51.029Z,65.79
2023-03-29T07:38:19.217Z,65.92
2023-03-29T07:40:53.641Z,65.96
2023-03-29T07:43:43.072Z,66.16
2023-03-29T07:46:14.320Z,66.00
2023-03-29T07:48:45.064Z,66.12
2023-03-29T07:51:16.233Z,66.30
2023-03-29T07:53:55.025Z,66.40
2023-03-29T07:56:49.641Z,66.44
2023-03-29T07:59:50.072Z,66.69
2023-03-29T08:02:24.327Z,66.78
2023-03-29T08:04:56.899Z,66.80
2023-03-29T08:07:47.319Z,66.81
2023-03-29T08:10:16.434Z,66.59
2023-03-29T08:13:13.469Z,66.70
2023-03-29T08:16:08.890Z,66.84
2023-03-29T08:18:43.238Z,67.04
2023-03-29T08:21:11.333Z,67.51
2023-03-29T08:23:39.385Z,67.40
2023-03-29T08:26:13.662Z,67.53
2023-03-29T08:28:41.675Z,67.55
2023-03-29T08:31:11.219Z,67.61
2023-03-29T08:33:44.200Z,67.85
2023-03-29T08:36:38.662Z,67.82
2023-03-29T08:39:13.958Z,68.01
2023-03-29T08:41:52.503Z,68.14
2023-03-29T08:44:27.896Z,68.13
2023-03-29T08:47:02.752Z,68.15
2023-03-29T08:49:41.615Z,68.38
2023-03-29T08:52:18.131Z,68.55
2023-03-29T08:54:47.346Z,68.61
2023-03-29T08:57:19.909Z,68.53
2023-03-29T08:59:53.323Z,68.78
2023-03-29T09:02:24.284Z,68.31
2023-03-29T09:05:00.398Z,68.40
2023-03-29T09:07:34.876Z,68.43
2023-03-29T09:10:03.521Z,68.17
2023-03-29T09:12:45.694Z,68.40
2023-03-29T09:15:19.496Z,68.39
2023-03-29T09:18:07.195Z,68.47
2023-03-29T09:20:41.189Z,68.13
2023-03-29T09:23:40.223Z,68.28
2023-03-29T09:26:39.433Z,68.06
2023-03-29T09:29:27.961Z,67.97
2023-03-29T09:31:56.259Z,67.99
2023-03-29T09:34:25.544Z,68.00
2023-03-29T09:37:02.325Z,67.83
2023-03-29T09:39:30.493Z,67.59
2023-03-29T09:42:09.187Z,67.78
2023-03-29T09:44:41.464Z,67.70
2023-03-29T09:47:14.491Z,67.44
2023-03-29T09:49:44.439Z,67.48
2023-03-29T09:52:15.364Z,67.54
2023-03-29T09:54:48.925Z,67.57
2023-03-29T09:57:39.781Z,67.55
2023-03-29T10:00:10.742Z,67.80
2023-03-29T10:02:41.899Z,67.60
2023-03-29T10:05:16.878Z,67.43
2023-03-29T10:07:49.781Z,67.62
2023-03-29T10:10:22.814Z,67.74
2023-03-29T10:12:51.843Z,67.76
2023-03-29T10:15:28.757Z,67.60
2023-03-29T10:18:03.163Z,67.60
2023-03-29T10:20:31.650Z,67.25
2023-03-29T10:23:01.157Z,67.44
2023-03-29T10:25:30.558Z,67.32
2023-03-29T10:28:04.010Z,67.16
2023-03-29T10:30:32.050Z,66.79
2023-03-29T10:33:00.172Z,66.83
2023-03-29T10:35:30.885Z,66.64
2023-03-29T10:38:00.435Z,66.53
2023-03-29T10:40:29.752Z,66.39
2023-03-29T10:43:00.110Z,66.21
2023-03-29T10:45:29.894Z,66.05
2023-03-29T10:47:58.117Z,65.91
2023-03-29T10:50:26.694Z,65.88
2023-03-29T10:52:54.647Z,65.66
2023-03-29T10:55:25.017Z,65.76
2023-03-29T10:57:58.920Z,65.49
2023-03-29T11:00:29.520Z,65.51
2023-03-29T11:03:29.455Z,65.48
2023-03-29T11:05:59.277Z,65.41
2023-03-29T11:08:37.465Z,65.84
2023-03-29T11:11:14.117Z,65.90
2023-03-29T11:13:46.425Z,66.05
2023-03-29T11:16:21.080Z,65.88
2023-03-29T11:18:56.590Z,66.10
2023-03-29T11:21:28.390Z,66.09
2023-03-29T11:24:03.352Z,66.05
2023-03-29T11:26:35.638Z,65.95
2023-03-29T11:29:06.314Z,66.07
2023-03-29T11:31:39.062Z,66.34
2023-03-29T11:34:20.644Z,66.22
2023-03-29T11:36:51.717Z,66.42
2023-03-29T11:39:24.828Z,66.50
2023-03-29T11:41:56.145Z,66.43
2023-03-29T11:44:25.870Z,66.12
2023-03-29T11:46:56.098Z,66.18
2023-03-29T11:49:25.704Z,66.07
2023-03-29T11:51:55.832Z,65.81
2023-03-29T11:54:27.202Z,65.74
2023-03-29T11:57:00.436Z,65.65
2023-03-29T11:59:33.267Z,65.73
2023-03-29T12:02:05.704Z,65.65
2023-03-29T12:04:37.282Z,65.93
2023-03-29T12:07:10.997Z,66.04
2023-03-29T12:09:40.939Z,66.04
2023-03-29T12:12:13.877Z,65.38
2023-03-29T12:14:52.906Z,65.14
2023-03-29T12:17:26.123Z,64.95
2023-03-29T12:20:00.966Z,65.11
2023-03-29T12:22:29.872Z,64.64
2023-03-29T12:24:58.974Z,64.51
2023-03-29T12:27:29.781Z,64.42
2023-03-29T12:30:24.593Z,64.59
2023-03-29T12:33:03.140Z,64.51
2023-03-29T12:36:36.541Z,64.24
2023-03-29T12:39:04.601Z,63.84
2023-03-29T12:41:53.455Z,63.92
2023-03-29T12:44:42.027Z,63.48
2023-03-29T12:47:25.784Z,63.54
2023-03-29T12:49:54.957Z,63.90
2023-03-29T12:52:27.072Z,63.25
2023-03-29T12:54:55.882Z,63.43
2023-03-29T12:57:28.810Z,63.32
2023-03-29T12:59:58.344Z,63.23
2023-03-29T13:02:28.425Z,63.18
2023-03-29T13:04:57.376Z,62.92
2023-03-29T13:07:33.858Z,62.53
2023-03-29T13:10:03.356Z,61.78
2023-03-29T13:12:36.100Z,61.48
2023-03-29T13:15:07.037Z,61.17
2023-03-29T13:17:38.054Z,61.29
2023-03-29T13:20:21.640Z,60.62
2023-03-29T13:22:57.077Z,60.23
2023-03-29T13:25:38.613Z,60.15
2023-03-29T13:28:09.317Z,59.83
2023-03-29T13:30:47.508Z,59.57
2023-03-29T13:33:32.756Z,59.34
2023-03-29T13:36:03.966Z,59.23
2023-03-29T13:38:34.190Z,59.37
2023-03-29T13:41:04.701Z,59.39
2023-03-29T13:43:37.567Z,59.81
2023-03-29T13:46:20.225Z,59.73
2023-03-29T13:48:52.863Z,59.96
2023-03-29T13:51:28.213Z,60.08
2023-03-29T13:53:57.392Z,60.09
2023-03-29T13:56:27.524Z,60.01
2023-03-29T13:58:58.298Z,60.25
2023-03-29T14:01:31.403Z,60.42
2023-03-29T14:03:59.973Z,60.33
2023-03-29T14:06:29.375Z,60.37
2023-03-29T14:08:57.746Z,60.60
2023-03-29T14:11:26.877Z,60.43
2023-03-29T14:13:58.396Z,60.51
2023-03-29T14:16:30.571Z,60.62
2023-03-29T14:19:03.816Z,60.65
2023-03-29T14:21:32.705Z,60.69
2023-03-29T14:24:04.484Z,60.82
2023-03-29T14:26:33.969Z,60.73
2023-03-29T14:29:03.243Z,60.84
2023-03-29T14:31:34.089Z,60.96
2023-03-29T14:34:03.933Z,61.07
2023-03-29T14:36:33.285Z,61.27
2023-03-29T14:39:02.976Z,61.18
2023-03-29T14:41:31.251Z,61.12
2023-03-29T14:43:59.411Z,61.22
2023-03-29T14:46:27.490Z,61.05
2023-03-29T14:48:57.209Z,61.27
2023-03-29T14:51:28.632Z,61.39
2023-03-29T14:53:57.233Z,61.48
2023-03-29T14:56:26.372Z,61.68
2023-03-29T14:58:55.149Z,61.89
2023-03-29T15:01:24.659Z,62.04
2023-03-29T15:04:03.247Z,62.01
2023-03-29T15:06:32.787Z,62.01
2023-03-29T15:09:05.042Z,61.97
2023-03-29T15:11:35.934Z,62.12
2023-03-29T15:14:07.570Z,62.12
2023-03-29T15:16:38.694Z,62.16
2023-03-29T15:19:12.250Z,62.19
2023-03-29T15:21:40.682Z,62.12
2023-03-29T15:24:20.659Z,62.17
2023-03-29T15:26:59.171Z,61.92
2023-03-29T15:29:35.194Z,61.88
2023-03-29T15:32:03.811Z,61.94
2023-03-29T15:34:34.214Z,62.04
2023-03-29T15:37:02.571Z,62.06
2023-03-29T15:39:30.750Z,62.15
2023-03-29T15:41:58.895Z,62.30
2023-03-29T15:44:28.625Z,62.47
2023-03-29T15:46:58.368Z,62.39
2023-03-29T15:49:28.824Z,62.29
2023-03-29T15:52:00.578Z,62.43
2023-03-29T15:54:31.086Z,62.21
2023-03-29T15:57:01.940Z,62.28
2023-03-29T15:59:30.149Z,62.33
2023-03-29T16:01:58.245Z,62.40
2023-03-29T16:04:26.311Z,62.54
2023-03-29T16:06:55.330Z,62.63
2023-03-29T16:09:25.652Z,62.64
2023-03-29T16:11:53.638Z,63.15
2023-03-29T16:14:23.082Z,63.54
2023-03-29T16:16:51.398Z,63.83
2023-03-29T16:19:19.594Z,63.82
2023-03-29T16:21:48.100Z,64.22
2023-03-29T16:24:16.895Z,64.46
2023-03-29T16:26:46.388Z,64.90
2023-03-29T16:29:14.328Z,65.30
2023-03-29T16:31:42.260Z,65.32
2023-03-29T16:34:11.250Z,65.51
2023-03-29T16:36:39.232Z,65.92
2023-03-29T16:39:07.338Z,66.07
2023-03-29T16:41:35.211Z,66.25
2023-03-29T16:44:04.907Z,66.44
2023-03-29T16:46:32.933Z,66.70
2023-03-29T16:49:00.912Z,66.90
2023-03-29T16:51:28.824Z,67.32
2023-03-29T16:53:56.886Z,67.16
2023-03-29T16:56:24.882Z,67.24
2023-03-29T16:58:52.772Z,67.24
2023-03-29T17:01:22.761Z,67.30
2023-03-29T17:03:51.885Z,67.33
2023-03-29T17:06:19.774Z,67.33
2023-03-29T17:08:47.694Z,67.27
2023-03-29T17:11:16.055Z,67.35
2023-03-29T17:13:44.593Z,67.58
2023-03-29T17:16:12.507Z,67.59
2023-03-29T17:18:42.164Z,67.53
2023-03-29T17:21:10.085Z,67.66
2023-03-29T17:23:38.047Z,67.83
2023-03-29T17:26:07.030Z,67.87
2023-03-29T17:28:37.113Z,68.04
2023-03-29T17:31:07.074Z,68.09
2023-03-29T17:33:36.041Z,68.32
2023-03-29T17:36:07.372Z,68.10
2023-03-29T17:38:35.672Z,68.38
2023-03-29T17:41:04.523Z,68.35
2023-03-29T17:43:32.727Z,68.19
2023-03-29T17:46:00.848Z,68.02
2023-03-29T17:48:29.097Z,68.06
2023-03-29T17:50:57.814Z,68.27
2023-03-29T17:53:27.325Z,68.40
2023-03-29T17:55:55.542Z,68.46
2023-03-29T17:58:23.480Z,68.60
2023-03-29T18:00:51.574Z,68.65
2023-03-29T18:03:19.575Z,68.59
2023-03-29T18:05:47.690Z,68.55
2023-03-29T18:08:16.816Z,68.37
2023-03-29T18:10:48.450Z,68.57
2023-03-29T18:13:16.626Z,68.43
2023-03-29T18:15:45.188Z,68.14
2023-03-29T18:18:13.169Z,68.10
2023-03-29T18:20:41.390Z,68.03
2023-03-29T18:23:09.452Z,67.93
2023-03-29T18:25:38.641Z,67.90
2023-03-29T18:28:08.069Z,67.82
2023-03-29T18:30:36.264Z,67.85
2023-03-29T18:33:04.236Z,67.52
2023-03-29T18:35:32.261Z,67.53
2023-03-29T18:38:00.277Z,67.77
2023-03-29T18:40:28.353Z,67.54
2023-03-29T18:42:56.403Z,67.92
2023-03-29T18:45:26.319Z,67.81
2023-03-29T18:47:54.387Z,67.88
2023-03-29T18:50:23.171Z,67.68
2023-03-29T18:52:51.524Z,67.99
2023-03-29T18:55:19.433Z,67.83
2023-03-29T18:57:48.882Z,67.94
2023-03-29T19:00:17.626Z,67.97
2023-03-29T19:02:47.120Z,68.10
2023-03-29T19:05:15.162Z,67.88
2023-03-29T19:07:43.083Z,67.95
2023-03-29T19:10:12.199Z,68.17
2023-03-29T19:12:41.569Z,68.10
2023-03-29T19:15:11.845Z,68.10
2023-03-29T19:17:40.047Z,68.11
2023-03-29T19:20:11.134Z,68.16
2023-03-29T19:22:39.123Z,68.04
2023-03-29T19:25:08.156Z,68.16
2023-03-29T19:27:36.402Z,68.17
2023-03-29T19:30:05.237Z,68.29
2023-03-29T19:32:33.818Z,68.37
2023-03-29T19:35:01.926Z,68.15
2023-03-29T19:37:31.639Z,68.54
2023-03-29T19:39:59.870Z,68.34
2023-03-29T19:42:28.104Z,68.45
2023-03-29T19:44:56.488Z,68.35
2023-03-29T19:47:24.544Z,68.03
2023-03-29T19:49:52.460Z,68.36
2023-03-29T19:52:23.960Z,68.37
2023-03-29T19:54:53.299Z,68.33
2023-03-29T19:57:21.463Z,68.17
2023-03-29T19:59:49.537Z,68.24
2023-03-29T20:02:17.547Z,67.93
2023-03-29T20:04:45.654Z,67.04
2023-03-29T20:07:13.678Z,67.10
2023-03-29T20:09:44.548Z,66.45
2023-03-29T20:12:14.939Z,66.32
2023-03-29T20:14:43.357Z,65.94
2023-03-29T20:17:11.328Z,65.67
2023-03-29T20:19:44.194Z,65.29
2023-03-29T20:22:12.200Z,65.06
2023-03-29T20:24:40.123Z,65.11
2023-03-29T20:27:08.680Z,64.58
2023-03-29T20:29:37.978Z,64.52
2023-03-29T20:32:06.674Z,64.20
2023-03-29T20:34:34.792Z,64.02
2023-03-29T20:37:03.699Z,63.83
2023-03-29T20:39:31.760Z,63.49
2023-03-29T20:42:00.534Z,63.38
2023-03-29T20:44:28.986Z,63.10
2023-03-29T20:47:05.106Z,63.11
2023-03-29T20:49:38.482Z,63.02
2023-03-29T20:52:08.708Z,63.30
2023-03-29T20:54:37.046Z,62.93
2023-03-29T20:57:05.209Z,62.74
2023-03-29T20:59:34.401Z,62.62
2023-03-29T21:02:03.686Z,62.55
2023-03-29T21:04:32.558Z,62.51
2023-03-29T21:07:02.942Z,62.56
2023-03-29T21:09:34.381Z,62.32
2023-03-29T21:12:02.346Z,62.49
2023-03-29T21:14:33.091Z,62.51
2023-03-29T21:17:01.529Z,62.37
2023-03-29T21:19:31.063Z,62.43
2023-03-29T21:21:59.482Z,62.25
2023-03-29T21:24:27.701Z,62.41
2023-03-29T21:26:55.899Z,63.08
2023-03-29T21:29:24.074Z,63.95
2023-03-29T21:31:52.074Z,64.67
2023-03-29T21:34:20.374Z,64.52
2023-03-29T21:36:49.924Z,64.26
2023-03-29T21:39:17.962Z,64.28
2023-03-29T21:41:45.862Z,64.13
2023-03-29T21:44:15.423Z,63.60
2023-03-29T21:46:43.364Z,63.41
2023-03-29T21:49:11.967Z,63.10
2023-03-29T21:51:39.883Z,63.29
2023-03-29T21:54:10.546Z,63.14
2023-03-29T21:56:38.839Z,63.10
2023-03-29T21:59:06.920Z,62.95
2023-03-29T22:01:35.033Z,62.76
2023-03-29T22:04:03.990Z,62.64
2023-03-29T22:06:32.266Z,62.58
2023-03-29T22:09:00.772Z,62.48
2023-03-29T22:11:30.307Z,61.84
2023-03-29T22:13:58.366Z,61.65
2023-03-29T22:16:28.745Z,61.17
2023-03-29T22:18:59.952Z,61.04
2023-03-29T22:21:31.285Z,60.82
2023-03-29T22:24:01.998Z,60.57
2023-03-29T22:26:32.195Z,60.54
2023-03-29T22:29:00.918Z,59.94
2023-03-29T22:31:29.373Z,60.11
2023-03-29T22:33:58.477Z,59.94
2023-03-29T22:36:27.359Z,59.89
2023-03-29T22:38:55.389Z,59.84
2023-03-29T22:41:23.792Z,59.84
2023-03-29T22:43:55.740Z,60.19
2023-03-29T22:46:24.292Z,60.01
2023-03-29T22:48:55.736Z,60.23
2023-03-29T22:51:23.746Z,60.44
2023-03-29T22:53:51.816Z,60.52
2023-03-29T22:56:21.989Z,60.76
2023-03-29T22:58:50.265Z,60.98
2023-03-29T23:01:19.872Z,60.66
2023-03-29T23:03:47.899Z,60.91
2023-03-29T23:06:16.215Z,61.12
2023-03-29T23:08:47.143Z,61.32
2023-03-29T23:11:15.413Z,60.97
2023-03-29T23:13:43.416Z,60.76
2023-03-29T23:16:11.667Z,60.78
2023-03-29T23:18:40.984Z,60.37
2023-03-29T23:21:10.528Z,60.45
2023-03-29T23:23:40.597Z,60.31
2023-03-29T23:26:10.343Z,60.47
2023-03-29T23:28:38.277Z,60.25
2023-03-29T23:31:09.571Z,60.20
2023-03-29T23:33:40.279Z,60.28
2023-03-29T23:36:10.862Z,60.47
2023-03-29T23:38:39.719Z,60.12
2023-03-29T23:41:08.520Z,60.24
2023-03-29T23:43:40.503Z,60.29
2023-03-29T23:46:10.578Z,60.45
2023-03-29T23:48:39.141Z,60.79
2023-03-29T23:51:09.884Z,61.04
2023-03-29T23:53:38.264Z,61.14
2023-03-29T23:56:07.647Z,61.41
2023-03-29T23:58:39.362Z,61.37
